CheckWX is a tool to help pilots better visualize weather data.  It is not intended as a substitute for an official pre-flight weather briefing.

01:09:40 UTC

KHEY METAR
Hanchey AHP (Fort Rucker) Heliport
Fort Rucker Ozark, Alabama, USA
Current

20 mins ago

KHEY 240050Z AUTO 20004KT 10SM CLR 23/19 A3001 RMK AO2 SLP162
Observed
Feb-24 @ 00:50 UTC
Wind
  • 200° at 4 KTS
Visibility
10 SM
Flight Rules
VFR
Cloud Levels
  • Clear skies
Temperature
23°C / 73°F
Dewpoint
19°C / 66°F
Humidity
78%
Altimeter
30.01" Hg
Pressure
1016.2 hPa
Previous

1 hour ago

KHEY 232358Z AUTO 20006KT 10SM CLR 24/18 A2999 RMK AO2 SLP156 T02420179 10292 20242 53001
Observed
Feb-23 @ 23:58 UTC
Wind
  • 200° at 6 KTS
Visibility
10 SM
Flight Rules
VFR
Cloud Levels
  • Clear skies
Temperature
24°C / 75°F
Dewpoint
18°C / 64°F
Humidity
69%
Altimeter
29.99" Hg
Pressure
1015.6 hPa
Previous

2 hours ago

KHEY 232258Z AUTO 21006G15KT 10SM CLR 26/17 A2998 RMK AO2 SLP152 T02590172
Observed
Feb-23 @ 22:58 UTC
Wind
  • 210° at 6 KTS
  • Gusting to 15 KTS
Visibility
10 SM
Flight Rules
VFR
Cloud Levels
  • Clear skies
Temperature
26°C / 79°F
Dewpoint
17°C / 63°F
Humidity
58%
Altimeter
29.98" Hg
Pressure
1015.2 hPa